sensor_id;sensor_type;location;lat;lon;timestamp;P1;durP1;ratioP1;P2;durP2;ratioP2
69203;SDS011;56317;27.658;85.326;2022-09-01T00:02:00;55.60;;;29.75;;
69203;SDS011;56317;27.658;85.326;2022-09-01T00:04:33;55.38;;;28.83;;
69203;SDS011;56317;27.658;85.326;2022-09-01T00:07:06;49.92;;;30.73;;
69203;SDS011;56317;27.658;85.326;2022-09-01T00:09:34;51.80;;;29.05;;
69203;SDS011;56317;27.658;85.326;2022-09-01T00:12:03;52.58;;;28.15;;
69203;SDS011;56317;27.658;85.326;2022-09-01T00:14:34;54.95;;;28.23;;
69203;SDS011;56317;27.658;85.326;2022-09-01T00:17:04;52.45;;;29.80;;
69203;SDS011;56317;27.658;85.326;2022-09-01T00:19:33;51.07;;;28.30;;
69203;SDS011;56317;27.658;85.326;2022-09-01T00:22:02;51.05;;;29.70;;
69203;SDS011;56317;27.658;85.326;2022-09-01T00:24:29;52.38;;;30.60;;
69203;SDS011;56317;27.658;85.326;2022-09-01T00:26:57;59.08;;;30.10;;
69203;SDS011;56317;27.658;85.326;2022-09-01T00:29:24;47.80;;;28.60;;
69203;SDS011;56317;27.658;85.326;2022-09-01T00:31:52;50.30;;;29.73;;
69203;SDS011;56317;27.658;85.326;2022-09-01T00:34:19;50.50;;;30.75;;
69203;SDS011;56317;27.658;85.326;2022-09-01T00:36:47;51.67;;;28.95;;
69203;SDS011;56317;27.658;85.326;2022-09-01T00:39:14;49.35;;;29.98;;
69203;SDS011;56317;27.658;85.326;2022-09-01T00:41:42;54.45;;;29.98;;
69203;SDS011;56317;27.658;85.326;2022-09-01T00:44:11;49.20;;;29.35;;
69203;SDS011;56317;27.658;85.326;2022-09-01T00:46:41;52.00;;;28.52;;
69203;SDS011;56317;27.658;85.326;2022-09-01T00:49:12;52.10;;;31.08;;
69203;SDS011;56317;27.658;85.326;2022-09-01T00:51:52;44.80;;;28.13;;
69203;SDS011;56317;27.658;85.326;2022-09-01T00:54:25;49.78;;;29.52;;
69203;SDS011;56317;27.658;85.326;2022-09-01T00:56:55;50.53;;;30.38;;
69203;SDS011;56317;27.658;85.326;2022-09-01T00:59:24;52.58;;;31.20;;
69203;SDS011;56317;27.658;85.326;2022-09-01T01:01:53;53.30;;;30.95;;
69203;SDS011;56317;27.658;85.326;2022-09-01T01:04:21;54.67;;;32.60;;
69203;SDS011;56317;27.658;85.326;2022-09-01T01:06:50;49.65;;;30.67;;
69203;SDS011;56317;27.658;85.326;2022-09-01T01:09:32;50.78;;;29.77;;
69203;SDS011;56317;27.658;85.326;2022-09-01T01:12:03;55.42;;;32.63;;
69203;SDS011;56317;27.658;85.326;2022-09-01T01:14:33;52.55;;;32.03;;
69203;SDS011;56317;27.658;85.326;2022-09-01T01:17:03;47.30;;;30.30;;
69203;SDS011;56317;27.658;85.326;2022-09-01T01:19:39;49.75;;;29.52;;
69203;SDS011;56317;27.658;85.326;2022-09-01T01:30:54;44.58;;;27.88;;
69203;SDS011;56317;27.658;85.326;2022-09-01T01:35:52;48.15;;;28.58;;
69203;SDS011;56317;27.658;85.326;2022-09-01T01:38:22;51.15;;;29.35;;
69203;SDS011;56317;27.658;85.326;2022-09-01T01:40:52;44.83;;;26.85;;
69203;SDS011;56317;27.658;85.326;2022-09-01T01:43:21;47.03;;;27.08;;
69203;SDS011;56317;27.658;85.326;2022-09-01T01:45:51;49.83;;;29.90;;
69203;SDS011;56317;27.658;85.326;2022-09-01T01:48:21;48.95;;;27.55;;
69203;SDS011;56317;27.658;85.326;2022-09-01T01:50:52;42.53;;;27.27;;
69203;SDS011;56317;27.658;85.326;2022-09-01T01:53:24;46.10;;;27.42;;
69203;SDS011;56317;27.658;85.326;2022-09-01T01:55:51;39.55;;;25.02;;
69203;SDS011;56317;27.658;85.326;2022-09-01T01:58:19;43.15;;;25.23;;
69203;SDS011;56317;27.658;85.326;2022-09-01T02:00:49;46.67;;;27.40;;
69203;SDS011;56317;27.658;85.326;2022-09-01T02:03:19;45.63;;;25.85;;
69203;SDS011;56317;27.658;85.326;2022-09-01T02:05:50;42.50;;;25.45;;
69203;SDS011;56317;27.658;85.326;2022-09-01T02:08:19;43.92;;;25.27;;
69203;SDS011;56317;27.658;85.326;2022-09-01T02:10:51;45.55;;;26.00;;
69203;SDS011;56317;27.658;85.326;2022-09-01T02:13:20;43.35;;;24.33;;
69203;SDS011;56317;27.658;85.326;2022-09-01T02:15:56;39.53;;;24.35;;
69203;SDS011;56317;27.658;85.326;2022-09-01T02:18:28;38.10;;;24.63;;
69203;SDS011;56317;27.658;85.326;2022-09-01T02:21:01;38.47;;;24.58;;
69203;SDS011;56317;27.658;85.326;2022-09-01T02:23:34;45.92;;;24.83;;
69203;SDS011;56317;27.658;85.326;2022-09-01T02:28:34;37.58;;;22.95;;
69203;SDS011;56317;27.658;85.326;2022-09-01T02:31:04;40.53;;;23.23;;
69203;SDS011;56317;27.658;85.326;2022-09-01T02:33:33;39.47;;;24.70;;
69203;SDS011;56317;27.658;85.326;2022-09-01T02:36:03;38.70;;;23.15;;
69203;SDS011;56317;27.658;85.326;2022-09-01T02:38:33;39.35;;;23.98;;
69203;SDS011;56317;27.658;85.326;2022-09-01T02:41:01;36.85;;;23.27;;
69203;SDS011;56317;27.658;85.326;2022-09-01T02:43:29;38.17;;;23.75;;
69203;SDS011;56317;27.658;85.326;2022-09-01T02:45:57;39.22;;;24.80;;
69203;SDS011;56317;27.658;85.326;2022-09-01T02:48:37;44.47;;;25.23;;
69203;SDS011;56317;27.658;85.326;2022-09-01T02:51:11;48.03;;;26.23;;
69203;SDS011;56317;27.658;85.326;2022-09-01T02:53:40;42.20;;;26.42;;
69203;SDS011;56317;27.658;85.326;2022-09-01T02:56:09;44.10;;;25.77;;
69203;SDS011;56317;27.658;85.326;2022-09-01T02:58:39;68.85;;;28.60;;
69203;SDS011;56317;27.658;85.326;2022-09-01T03:01:21;63.63;;;28.38;;
69203;SDS011;56317;27.658;85.326;2022-09-01T03:03:58;56.15;;;28.20;;
69203;SDS011;56317;27.658;85.326;2022-09-01T03:06:27;49.10;;;29.17;;
69203;SDS011;56317;27.658;85.326;2022-09-01T03:08:56;40.90;;;26.33;;
69203;SDS011;56317;27.658;85.326;2022-09-01T03:11:25;53.28;;;26.65;;
69203;SDS011;56317;27.658;85.326;2022-09-01T03:13:54;45.13;;;24.50;;
69203;SDS011;56317;27.658;85.326;2022-09-01T03:16:22;46.45;;;24.40;;
69203;SDS011;56317;27.658;85.326;2022-09-01T03:18:49;48.10;;;26.08;;
69203;SDS011;56317;27.658;85.326;2022-09-01T03:21:16;54.17;;;28.25;;
69203;SDS011;56317;27.658;85.326;2022-09-01T03:23:45;55.42;;;29.02;;
69203;SDS011;56317;27.658;85.326;2022-09-01T03:26:14;43.67;;;26.27;;
69203;SDS011;56317;27.658;85.326;2022-09-01T03:28:44;44.30;;;26.08;;
69203;SDS011;56317;27.658;85.326;2022-09-01T03:31:12;49.88;;;25.55;;
69203;SDS011;56317;27.658;85.326;2022-09-01T03:33:40;56.70;;;26.08;;
69203;SDS011;56317;27.658;85.326;2022-09-01T03:36:07;39.92;;;24.48;;
69203;SDS011;56317;27.658;85.326;2022-09-01T03:38:47;47.83;;;23.85;;
69203;SDS011;56317;27.658;85.326;2022-09-01T03:41:16;36.33;;;22.95;;
69203;SDS011;56317;27.658;85.326;2022-09-01T03:43:47;44.33;;;25.48;;
69203;SDS011;56317;27.658;85.326;2022-09-01T03:46:16;44.80;;;26.00;;
69203;SDS011;56317;27.658;85.326;2022-09-01T03:48:50;42.85;;;24.27;;
69203;SDS011;56317;27.658;85.326;2022-09-01T03:51:20;44.15;;;22.30;;
69203;SDS011;56317;27.658;85.326;2022-09-01T03:53:48;49.42;;;24.67;;
69203;SDS011;56317;27.658;85.326;2022-09-01T03:58:46;40.90;;;23.85;;
69203;SDS011;56317;27.658;85.326;2022-09-01T04:01:13;36.75;;;25.42;;
69203;SDS011;56317;27.658;85.326;2022-09-01T04:03:41;46.88;;;26.58;;
69203;SDS011;56317;27.658;85.326;2022-09-01T04:06:13;46.83;;;26.30;;
69203;SDS011;56317;27.658;85.326;2022-09-01T04:08:43;70.05;;;28.17;;
69203;SDS011;56317;27.658;85.326;2022-09-01T04:11:16;57.55;;;28.98;;
69203;SDS011;56317;27.658;85.326;2022-09-01T04:13:48;50.78;;;27.70;;
69203;SDS011;56317;27.658;85.326;2022-09-01T04:16:17;50.75;;;26.40;;
69203;SDS011;56317;27.658;85.326;2022-09-01T04:19:05;42.80;;;24.65;;
69203;SDS011;56317;27.658;85.326;2022-09-01T04:21:48;52.58;;;25.80;;
69203;SDS011;56317;27.658;85.326;2022-09-01T04:24:16;54.40;;;26.05;;
69203;SDS011;56317;27.658;85.326;2022-09-01T04:26:59;42.88;;;24.17;;
69203;SDS011;56317;27.658;85.326;2022-09-01T04:29:27;37.50;;;21.60;;
69203;SDS011;56317;27.658;85.326;2022-09-01T04:31:57;41.13;;;22.23;;
69203;SDS011;56317;27.658;85.326;2022-09-01T04:34:28;33.50;;;20.90;;
69203;SDS011;56317;27.658;85.326;2022-09-01T04:37:02;43.38;;;21.08;;
69203;SDS011;56317;27.658;85.326;2022-09-01T04:39:37;33.20;;;20.30;;
69203;SDS011;56317;27.658;85.326;2022-09-01T04:42:12;26.50;;;16.85;;
69203;SDS011;56317;27.658;85.326;2022-09-01T04:44:40;35.97;;;18.45;;
69203;SDS011;56317;27.658;85.326;2022-09-01T04:47:11;39.92;;;19.23;;
69203;SDS011;56317;27.658;85.326;2022-09-01T04:49:47;36.42;;;20.77;;
69203;SDS011;56317;27.658;85.326;2022-09-01T04:52:17;44.47;;;21.05;;
69203;SDS011;56317;27.658;85.326;2022-09-01T04:54:44;39.47;;;20.85;;
69203;SDS011;56317;27.658;85.326;2022-09-01T04:57:13;36.90;;;19.23;;
69203;SDS011;56317;27.658;85.326;2022-09-01T04:59:41;32.97;;;18.95;;
69203;SDS011;56317;27.658;85.326;2022-09-01T05:02:08;37.45;;;20.05;;
69203;SDS011;56317;27.658;85.326;2022-09-01T05:04:36;37.20;;;23.85;;
69203;SDS011;56317;27.658;85.326;2022-09-01T05:07:05;45.65;;;23.13;;
69203;SDS011;56317;27.658;85.326;2022-09-01T05:09:35;48.60;;;23.38;;
69203;SDS011;56317;27.658;85.326;2022-09-01T05:12:03;47.95;;;23.48;;
69203;SDS011;56317;27.658;85.326;2022-09-01T05:14:38;35.28;;;21.25;;
69203;SDS011;56317;27.658;85.326;2022-09-01T05:17:07;37.35;;;20.25;;
69203;SDS011;56317;27.658;85.326;2022-09-01T05:19:37;34.10;;;18.50;;
69203;SDS011;56317;27.658;85.326;2022-09-01T05:24:35;57.33;;;25.10;;
69203;SDS011;56317;27.658;85.326;2022-09-01T05:27:03;58.00;;;26.90;;
69203;SDS011;56317;27.658;85.326;2022-09-01T05:29:31;56.33;;;28.77;;
69203;SDS011;56317;27.658;85.326;2022-09-01T05:32:02;51.67;;;29.65;;
69203;SDS011;56317;27.658;85.326;2022-09-01T05:34:34;56.53;;;32.45;;
69203;SDS011;56317;27.658;85.326;2022-09-01T05:37:03;62.08;;;30.88;;
69203;SDS011;56317;27.658;85.326;2022-09-01T05:39:33;52.97;;;26.73;;
69203;SDS011;56317;27.658;85.326;2022-09-01T05:42:02;44.22;;;26.25;;
69203;SDS011;56317;27.658;85.326;2022-09-01T05:44:32;44.45;;;24.27;;
69203;SDS011;56317;27.658;85.326;2022-09-01T05:47:01;41.92;;;25.05;;
69203;SDS011;56317;27.658;85.326;2022-09-01T05:49:29;42.70;;;24.60;;
69203;SDS011;56317;27.658;85.326;2022-09-01T05:51:57;42.33;;;25.60;;
69203;SDS011;56317;27.658;85.326;2022-09-01T05:54:25;41.08;;;25.27;;
69203;SDS011;56317;27.658;85.326;2022-09-01T05:56:54;40.67;;;23.08;;
69203;SDS011;56317;27.658;85.326;2022-09-01T05:59:25;36.95;;;22.80;;
69203;SDS011;56317;27.658;85.326;2022-09-01T06:01:56;38.00;;;21.73;;
69203;SDS011;56317;27.658;85.326;2022-09-01T06:04:23;32.85;;;20.50;;
69203;SDS011;56317;27.658;85.326;2022-09-01T06:06:51;28.77;;;18.55;;
69203;SDS011;56317;27.658;85.326;2022-09-01T06:09:21;26.05;;;17.48;;
69203;SDS011;56317;27.658;85.326;2022-09-01T06:11:49;28.70;;;16.50;;
69203;SDS011;56317;27.658;85.326;2022-09-01T06:14:16;31.98;;;15.77;;
69203;SDS011;56317;27.658;85.326;2022-09-01T06:16:44;25.42;;;15.70;;
69203;SDS011;56317;27.658;85.326;2022-09-01T06:19:12;25.55;;;14.82;;
69203;SDS011;56317;27.658;85.326;2022-09-01T06:21:39;21.15;;;12.55;;
69203;SDS011;56317;27.658;85.326;2022-09-01T06:24:06;22.77;;;11.90;;
69203;SDS011;56317;27.658;85.326;2022-09-01T06:26:35;27.98;;;12.05;;
69203;SDS011;56317;27.658;85.326;2022-09-01T06:29:08;25.30;;;10.85;;
69203;SDS011;56317;27.658;85.326;2022-09-01T06:31:40;21.67;;;8.27;;
69203;SDS011;56317;27.658;85.326;2022-09-01T06:34:10;21.38;;;8.07;;
69203;SDS011;56317;27.658;85.326;2022-09-01T06:36:43;12.98;;;5.85;;
69203;SDS011;56317;27.658;85.326;2022-09-01T06:39:14;14.88;;;5.97;;
69203;SDS011;56317;27.658;85.326;2022-09-01T06:44:17;20.45;;;5.90;;
69203;SDS011;56317;27.658;85.326;2022-09-01T06:49:14;12.80;;;5.32;;
69203;SDS011;56317;27.658;85.326;2022-09-01T06:51:42;15.98;;;5.80;;
69203;SDS011;56317;27.658;85.326;2022-09-01T06:54:12;10.18;;;5.47;;
69203;SDS011;56317;27.658;85.326;2022-09-01T06:56:40;11.30;;;5.00;;
69203;SDS011;56317;27.658;85.326;2022-09-01T06:59:07;12.40;;;4.60;;
69203;SDS011;56317;27.658;85.326;2022-09-01T07:01:40;13.80;;;5.30;;
69203;SDS011;56317;27.658;85.326;2022-09-01T07:04:07;8.48;;;4.25;;
69203;SDS011;56317;27.658;85.326;2022-09-01T07:06:34;12.02;;;4.45;;
69203;SDS011;56317;27.658;85.326;2022-09-01T07:09:04;11.20;;;4.90;;
69203;SDS011;56317;27.658;85.326;2022-09-01T07:14:03;14.00;;;6.63;;
69203;SDS011;56317;27.658;85.326;2022-09-01T07:16:32;12.07;;;6.25;;
69203;SDS011;56317;27.658;85.326;2022-09-01T07:19:05;11.40;;;5.63;;
69203;SDS011;56317;27.658;85.326;2022-09-01T07:21:43;15.18;;;7.65;;
69203;SDS011;56317;27.658;85.326;2022-09-01T07:24:10;17.75;;;6.55;;
69203;SDS011;56317;27.658;85.326;2022-09-01T07:26:44;24.58;;;7.78;;
69203;SDS011;56317;27.658;85.326;2022-09-01T07:29:15;16.98;;;6.78;;
69203;SDS011;56317;27.658;85.326;2022-09-01T07:31:46;11.63;;;5.82;;
69203;SDS011;56317;27.658;85.326;2022-09-01T07:34:18;15.68;;;6.90;;
69203;SDS011;56317;27.658;85.326;2022-09-01T07:36:46;16.27;;;7.32;;
69203;SDS011;56317;27.658;85.326;2022-09-01T07:39:24;10.77;;;7.05;;
69203;SDS011;56317;27.658;85.326;2022-09-01T07:41:51;14.43;;;6.70;;
69203;SDS011;56317;27.658;85.326;2022-09-01T07:44:18;13.85;;;7.00;;
69203;SDS011;56317;27.658;85.326;2022-09-01T07:46:46;19.23;;;8.05;;
69203;SDS011;56317;27.658;85.326;2022-09-01T07:49:16;16.48;;;8.18;;
69203;SDS011;56317;27.658;85.326;2022-09-01T07:51:44;13.55;;;6.85;;
69203;SDS011;56317;27.658;85.326;2022-09-01T07:54:17;19.13;;;7.60;;
69203;SDS011;56317;27.658;85.326;2022-09-01T07:59:14;19.58;;;9.32;;
69203;SDS011;56317;27.658;85.326;2022-09-01T08:01:42;21.13;;;8.20;;
69203;SDS011;56317;27.658;85.326;2022-09-01T08:04:11;18.55;;;6.78;;
69203;SDS011;56317;27.658;85.326;2022-09-01T08:06:39;13.90;;;6.75;;
69203;SDS011;56317;27.658;85.326;2022-09-01T08:09:06;14.20;;;6.57;;
69203;SDS011;56317;27.658;85.326;2022-09-01T08:11:35;18.85;;;7.47;;
69203;SDS011;56317;27.658;85.326;2022-09-01T08:14:02;15.32;;;6.80;;
69203;SDS011;56317;27.658;85.326;2022-09-01T08:16:30;14.20;;;6.75;;
69203;SDS011;56317;27.658;85.326;2022-09-01T08:18:57;16.90;;;6.78;;
69203;SDS011;56317;27.658;85.326;2022-09-01T08:21:25;16.50;;;6.43;;
69203;SDS011;56317;27.658;85.326;2022-09-01T08:23:53;17.48;;;8.35;;
69203;SDS011;56317;27.658;85.326;2022-09-01T08:26:22;18.17;;;8.35;;
69203;SDS011;56317;27.658;85.326;2022-09-01T08:28:51;16.23;;;7.72;;
69203;SDS011;56317;27.658;85.326;2022-09-01T08:31:19;17.38;;;8.27;;
69203;SDS011;56317;27.658;85.326;2022-09-01T08:33:48;14.88;;;7.45;;
69203;SDS011;56317;27.658;85.326;2022-09-01T08:36:16;17.80;;;8.95;;
69203;SDS011;56317;27.658;85.326;2022-09-01T08:38:44;18.90;;;8.52;;
69203;SDS011;56317;27.658;85.326;2022-09-01T08:41:31;14.02;;;8.10;;
69203;SDS011;56317;27.658;85.326;2022-09-01T08:47:15;18.25;;;8.10;;
69203;SDS011;56317;27.658;85.326;2022-09-01T08:49:44;15.05;;;8.35;;
69203;SDS011;56317;27.658;85.326;2022-09-01T08:52:29;12.15;;;6.45;;
69203;SDS011;56317;27.658;85.326;2022-09-01T08:54:59;11.32;;;6.80;;
69203;SDS011;56317;27.658;85.326;2022-09-01T08:59:58;13.55;;;5.93;;
69203;SDS011;56317;27.658;85.326;2022-09-01T09:02:32;15.43;;;5.95;;
69203;SDS011;56317;27.658;85.326;2022-09-01T09:11:09;9.52;;;4.28;;
69203;SDS011;56317;27.658;85.326;2022-09-01T09:16:48;11.98;;;4.57;;
69203;SDS011;56317;27.658;85.326;2022-09-01T09:19:36;8.95;;;4.15;;
69203;SDS011;56317;27.658;85.326;2022-09-01T09:22:18;12.63;;;4.90;;
69203;SDS011;56317;27.658;85.326;2022-09-01T09:24:53;12.77;;;4.80;;
69203;SDS011;56317;27.658;85.326;2022-09-01T09:27:34;8.02;;;4.50;;
69203;SDS011;56317;27.658;85.326;2022-09-01T09:30:07;12.15;;;4.22;;
69203;SDS011;56317;27.658;85.326;2022-09-01T09:32:42;12.57;;;3.88;;
69203;SDS011;56317;27.658;85.326;2022-09-01T09:37:55;7.95;;;3.97;;
69203;SDS011;56317;27.658;85.326;2022-09-01T09:43:57;12.88;;;4.53;;
69203;SDS011;56317;27.658;85.326;2022-09-01T09:46:40;12.65;;;4.00;;
69203;SDS011;56317;27.658;85.326;2022-09-01T09:51:46;10.43;;;4.18;;
69203;SDS011;56317;27.658;85.326;2022-09-01T09:54:26;6.88;;;3.97;;
69203;SDS011;56317;27.658;85.326;2022-09-01T09:57:08;16.15;;;5.40;;
69203;SDS011;56317;27.658;85.326;2022-09-01T09:59:41;9.05;;;4.45;;
69203;SDS011;56317;27.658;85.326;2022-09-01T10:04:56;16.70;;;4.50;;
69203;SDS011;56317;27.658;85.326;2022-09-01T10:07:32;6.80;;;3.45;;
69203;SDS011;56317;27.658;85.326;2022-09-01T10:10:04;8.25;;;4.00;;
69203;SDS011;56317;27.658;85.326;2022-09-01T10:12:51;10.15;;;4.25;;
69203;SDS011;56317;27.658;85.326;2022-09-01T10:15:21;11.00;;;4.15;;
69203;SDS011;56317;27.658;85.326;2022-09-01T10:17:54;11.68;;;4.28;;
69203;SDS011;56317;27.658;85.326;2022-09-01T10:20:31;9.23;;;4.55;;
69203;SDS011;56317;27.658;85.326;2022-09-01T10:23:02;11.90;;;4.70;;
69203;SDS011;56317;27.658;85.326;2022-09-01T10:25:30;9.80;;;5.10;;
69203;SDS011;56317;27.658;85.326;2022-09-01T10:28:14;8.23;;;4.50;;
69203;SDS011;56317;27.658;85.326;2022-09-01T10:30:46;14.70;;;5.82;;
69203;SDS011;56317;27.658;85.326;2022-09-01T10:33:14;12.55;;;5.65;;
69203;SDS011;56317;27.658;85.326;2022-09-01T10:38:24;16.60;;;6.07;;
69203;SDS011;56317;27.658;85.326;2022-09-01T10:40:54;19.88;;;6.07;;
69203;SDS011;56317;27.658;85.326;2022-09-01T10:43:43;11.55;;;5.57;;
69203;SDS011;56317;27.658;85.326;2022-09-01T10:48:49;15.70;;;6.45;;
69203;SDS011;56317;27.658;85.326;2022-09-01T10:53:46;13.73;;;5.15;;
69203;SDS011;56317;27.658;85.326;2022-09-01T11:04:16;12.95;;;6.30;;
69203;SDS011;56317;27.658;85.326;2022-09-01T11:07:49;13.55;;;7.50;;
69203;SDS011;56317;27.658;85.326;2022-09-01T11:16:15;20.70;;;9.52;;
69203;SDS011;56317;27.658;85.326;2022-09-01T11:18:53;17.73;;;9.93;;
69203;SDS011;56317;27.658;85.326;2022-09-01T11:21:28;24.27;;;10.43;;
69203;SDS011;56317;27.658;85.326;2022-09-01T11:27:06;18.92;;;10.52;;
69203;SDS011;56317;27.658;85.326;2022-09-01T11:29:51;24.42;;;11.10;;
69203;SDS011;56317;27.658;85.326;2022-09-01T11:32:22;19.40;;;8.98;;
69203;SDS011;56317;27.658;85.326;2022-09-01T11:34:52;18.33;;;8.88;;
69203;SDS011;56317;27.658;85.326;2022-09-01T11:37:23;21.73;;;9.40;;
69203;SDS011;56317;27.658;85.326;2022-09-01T11:39:54;21.98;;;9.30;;
69203;SDS011;56317;27.658;85.326;2022-09-01T11:45:13;26.15;;;9.85;;
69203;SDS011;56317;27.658;85.326;2022-09-01T11:47:46;19.60;;;10.88;;
69203;SDS011;56317;27.658;85.326;2022-09-01T11:55:35;29.90;;;12.88;;
69203;SDS011;56317;27.658;85.326;2022-09-01T11:58:09;27.33;;;11.80;;
69203;SDS011;56317;27.658;85.326;2022-09-01T12:03:44;31.65;;;12.60;;
69203;SDS011;56317;27.658;85.326;2022-09-01T12:06:18;35.22;;;12.77;;
69203;SDS011;56317;27.658;85.326;2022-09-01T12:08:50;25.15;;;12.32;;
69203;SDS011;56317;27.658;85.326;2022-09-01T12:11:30;19.67;;;11.48;;
69203;SDS011;56317;27.658;85.326;2022-09-01T12:16:27;30.95;;;13.52;;
69203;SDS011;56317;27.658;85.326;2022-09-01T12:18:56;23.00;;;11.90;;
69203;SDS011;56317;27.658;85.326;2022-09-01T12:26:51;23.92;;;13.75;;
69203;SDS011;56317;27.658;85.326;2022-09-01T12:29:21;23.90;;;14.88;;
69203;SDS011;56317;27.658;85.326;2022-09-01T12:31:50;32.22;;;16.10;;
69203;SDS011;56317;27.658;85.326;2022-09-01T12:34:24;29.10;;;15.48;;
69203;SDS011;56317;27.658;85.326;2022-09-01T12:39:45;27.38;;;14.75;;
69203;SDS011;56317;27.658;85.326;2022-09-01T12:44:46;29.30;;;15.00;;
69203;SDS011;56317;27.658;85.326;2022-09-01T12:52:45;35.67;;;15.73;;
69203;SDS011;56317;27.658;85.326;2022-09-01T12:55:16;26.88;;;14.32;;
69203;SDS011;56317;27.658;85.326;2022-09-01T12:57:50;30.02;;;15.60;;
69203;SDS011;56317;27.658;85.326;2022-09-01T13:00:29;24.52;;;15.68;;
69203;SDS011;56317;27.658;85.326;2022-09-01T13:05:32;30.77;;;16.08;;
69203;SDS011;56317;27.658;85.326;2022-09-01T13:08:00;29.90;;;17.38;;
69203;SDS011;56317;27.658;85.326;2022-09-01T13:10:49;29.98;;;16.92;;
69203;SDS011;56317;27.658;85.326;2022-09-01T13:13:18;35.13;;;17.13;;
69203;SDS011;56317;27.658;85.326;2022-09-01T13:15:49;33.45;;;16.80;;
69203;SDS011;56317;27.658;85.326;2022-09-01T13:18:19;41.78;;;22.50;;
69203;SDS011;56317;27.658;85.326;2022-09-01T13:20:48;41.15;;;23.23;;
69203;SDS011;56317;27.658;85.326;2022-09-01T13:23:16;60.20;;;26.73;;
69203;SDS011;56317;27.658;85.326;2022-09-01T13:25:44;46.47;;;24.05;;
69203;SDS011;56317;27.658;85.326;2022-09-01T13:28:12;37.88;;;19.92;;
69203;SDS011;56317;27.658;85.326;2022-09-01T13:30:40;43.53;;;21.42;;
69203;SDS011;56317;27.658;85.326;2022-09-01T13:33:09;35.80;;;19.52;;
69203;SDS011;56317;27.658;85.326;2022-09-01T13:35:37;38.92;;;18.38;;
69203;SDS011;56317;27.658;85.326;2022-09-01T13:38:04;33.72;;;18.42;;
69203;SDS011;56317;27.658;85.326;2022-09-01T13:40:31;36.85;;;18.75;;
69203;SDS011;56317;27.658;85.326;2022-09-01T13:42:58;41.50;;;19.38;;
69203;SDS011;56317;27.658;85.326;2022-09-01T13:45:29;37.83;;;18.50;;
69203;SDS011;56317;27.658;85.326;2022-09-01T13:47:56;31.70;;;18.45;;
69203;SDS011;56317;27.658;85.326;2022-09-01T13:50:24;34.90;;;18.55;;
69203;SDS011;56317;27.658;85.326;2022-09-01T13:52:53;33.28;;;17.85;;
69203;SDS011;56317;27.658;85.326;2022-09-01T13:55:23;36.25;;;17.05;;
69203;SDS011;56317;27.658;85.326;2022-09-01T13:57:52;33.33;;;17.20;;
69203;SDS011;56317;27.658;85.326;2022-09-01T14:00:22;31.15;;;17.48;;
69203;SDS011;56317;27.658;85.326;2022-09-01T14:02:52;30.60;;;16.38;;
69203;SDS011;56317;27.658;85.326;2022-09-01T14:05:22;32.03;;;16.63;;
69203;SDS011;56317;27.658;85.326;2022-09-01T14:07:52;40.65;;;16.95;;
69203;SDS011;56317;27.658;85.326;2022-09-01T14:10:20;35.65;;;17.75;;
69203;SDS011;56317;27.658;85.326;2022-09-01T14:12:48;39.30;;;17.70;;
69203;SDS011;56317;27.658;85.326;2022-09-01T14:15:17;30.27;;;17.58;;
69203;SDS011;56317;27.658;85.326;2022-09-01T14:17:46;31.13;;;16.23;;
69203;SDS011;56317;27.658;85.326;2022-09-01T14:20:16;38.60;;;16.05;;
69203;SDS011;56317;27.658;85.326;2022-09-01T14:22:45;28.13;;;16.30;;
69203;SDS011;56317;27.658;85.326;2022-09-01T14:25:13;35.45;;;17.75;;
69203;SDS011;56317;27.658;85.326;2022-09-01T14:27:41;36.10;;;18.45;;
69203;SDS011;56317;27.658;85.326;2022-09-01T14:30:11;36.00;;;18.25;;
69203;SDS011;56317;27.658;85.326;2022-09-01T14:32:42;38.97;;;18.90;;
69203;SDS011;56317;27.658;85.326;2022-09-01T14:35:09;33.20;;;18.30;;
69203;SDS011;56317;27.658;85.326;2022-09-01T14:37:37;34.75;;;19.08;;
69203;SDS011;56317;27.658;85.326;2022-09-01T14:40:11;32.95;;;17.20;;
69203;SDS011;56317;27.658;85.326;2022-09-01T14:42:44;33.15;;;18.05;;
69203;SDS011;56317;27.658;85.326;2022-09-01T14:45:23;39.00;;;18.75;;
69203;SDS011;56317;27.658;85.326;2022-09-01T14:47:54;40.22;;;18.23;;
69203;SDS011;56317;27.658;85.326;2022-09-01T14:50:23;34.38;;;17.13;;
69203;SDS011;56317;27.658;85.326;2022-09-01T14:52:52;30.70;;;16.30;;
69203;SDS011;56317;27.658;85.326;2022-09-01T14:55:24;25.80;;;15.43;;
69203;SDS011;56317;27.658;85.326;2022-09-01T14:57:54;32.35;;;16.23;;
69203;SDS011;56317;27.658;85.326;2022-09-01T15:00:22;30.30;;;15.60;;
69203;SDS011;56317;27.658;85.326;2022-09-01T15:02:49;23.83;;;15.32;;
69203;SDS011;56317;27.658;85.326;2022-09-01T15:05:17;29.15;;;15.00;;
69203;SDS011;56317;27.658;85.326;2022-09-01T15:07:44;27.98;;;16.00;;
69203;SDS011;56317;27.658;85.326;2022-09-01T15:10:13;29.20;;;16.00;;
69203;SDS011;56317;27.658;85.326;2022-09-01T15:12:44;29.25;;;17.40;;
69203;SDS011;56317;27.658;85.326;2022-09-01T15:15:11;28.63;;;15.82;;
69203;SDS011;56317;27.658;85.326;2022-09-01T15:17:39;30.10;;;16.42;;
69203;SDS011;56317;27.658;85.326;2022-09-01T15:20:07;27.33;;;15.13;;
69203;SDS011;56317;27.658;85.326;2022-09-01T15:22:53;29.13;;;15.82;;
69203;SDS011;56317;27.658;85.326;2022-09-01T15:25:23;27.40;;;15.50;;
69203;SDS011;56317;27.658;85.326;2022-09-01T15:27:51;33.97;;;15.10;;
69203;SDS011;56317;27.658;85.326;2022-09-01T15:30:18;29.77;;;16.63;;
69203;SDS011;56317;27.658;85.326;2022-09-01T15:32:47;24.77;;;16.48;;
69203;SDS011;56317;27.658;85.326;2022-09-01T15:35:16;30.55;;;17.27;;
69203;SDS011;56317;27.658;85.326;2022-09-01T15:37:47;25.80;;;16.58;;
69203;SDS011;56317;27.658;85.326;2022-09-01T15:40:15;28.30;;;16.95;;
69203;SDS011;56317;27.658;85.326;2022-09-01T15:42:44;33.15;;;17.75;;
69203;SDS011;56317;27.658;85.326;2022-09-01T15:45:15;34.35;;;18.27;;
69203;SDS011;56317;27.658;85.326;2022-09-01T15:47:44;36.20;;;18.48;;
69203;SDS011;56317;27.658;85.326;2022-09-01T15:50:16;36.60;;;18.02;;
69203;SDS011;56317;27.658;85.326;2022-09-01T15:52:56;39.25;;;18.67;;
69203;SDS011;56317;27.658;85.326;2022-09-01T15:55:25;38.38;;;18.33;;
69203;SDS011;56317;27.658;85.326;2022-09-01T15:57:53;28.33;;;17.65;;
69203;SDS011;56317;27.658;85.326;2022-09-01T16:00:22;27.20;;;17.23;;
69203;SDS011;56317;27.658;85.326;2022-09-01T16:02:50;32.45;;;18.63;;
69203;SDS011;56317;27.658;85.326;2022-09-01T16:05:20;36.22;;;19.05;;
69203;SDS011;56317;27.658;85.326;2022-09-01T16:07:48;43.00;;;22.42;;
69203;SDS011;56317;27.658;85.326;2022-09-01T16:10:16;34.60;;;19.88;;
69203;SDS011;56317;27.658;85.326;2022-09-01T16:12:44;31.55;;;19.95;;
69203;SDS011;56317;27.658;85.326;2022-09-01T16:15:15;38.58;;;19.40;;
69203;SDS011;56317;27.658;85.326;2022-09-01T16:22:56;28.08;;;14.98;;
69203;SDS011;56317;27.658;85.326;2022-09-01T16:25:44;31.02;;;15.85;;
69203;SDS011;56317;27.658;85.326;2022-09-01T16:28:26;28.10;;;15.15;;
69203;SDS011;56317;27.658;85.326;2022-09-01T16:30:57;36.28;;;15.80;;
69203;SDS011;56317;27.658;85.326;2022-09-01T16:33:32;32.10;;;15.65;;